sensor_id;sensor_type;location;lat;lon;timestamp;pressure;altitude;pressure_sealevel;temperature;humidity
69955;BME280;57279;55.912;37.490;2022-11-21T00:02:00;99854.13;;;-0.90;69.97
69955;BME280;57279;55.912;37.490;2022-11-21T00:04:25;99867.03;;;-0.87;69.77
69955;BME280;57279;55.912;37.490;2022-11-21T00:06:51;99874.13;;;-0.88;69.67
69955;BME280;57279;55.912;37.490;2022-11-21T00:09:17;99867.69;;;-0.85;69.99
69955;BME280;57279;55.912;37.490;2022-11-21T00:11:43;99865.38;;;-0.88;70.31
69955;BME280;57279;55.912;37.490;2022-11-21T00:14:08;99863.91;;;-0.91;69.75
69955;BME280;57279;55.912;37.490;2022-11-21T00:16:34;99871.31;;;-0.86;69.58
69955;BME280;57279;55.912;37.490;2022-11-21T00:19:00;99870.34;;;-0.85;69.98
69955;BME280;57279;55.912;37.490;2022-11-21T00:21:25;99861.19;;;-0.83;70.12
69955;BME280;57279;55.912;37.490;2022-11-21T00:23:51;99861.72;;;-0.87;70.13
69955;BME280;57279;55.912;37.490;2022-11-21T00:26:17;99857.63;;;-0.98;69.81
69955;BME280;57279;55.912;37.490;2022-11-21T00:28:43;99850.84;;;-1.01;69.65
69955;BME280;57279;55.912;37.490;2022-11-21T00:31:18;99849.34;;;-1.03;70.62
69955;BME280;57279;55.912;37.490;2022-11-21T00:33:44;99856.31;;;-1.02;70.56
69955;BME280;57279;55.912;37.490;2022-11-21T00:36:09;99861.25;;;-0.99;70.09
69955;BME280;57279;55.912;37.490;2022-11-21T00:38:35;99858.94;;;-0.94;70.20
69955;BME280;57279;55.912;37.490;2022-11-21T00:41:01;99853.69;;;-1.02;70.18
69955;BME280;57279;55.912;37.490;2022-11-21T00:43:27;99847.72;;;-1.04;71.13
69955;BME280;57279;55.912;37.490;2022-11-21T00:45:52;99848.53;;;-1.04;70.97
69955;BME280;57279;55.912;37.490;2022-11-21T00:48:18;99845.91;;;-1.04;70.78
69955;BME280;57279;55.912;37.490;2022-11-21T00:50:47;99837.34;;;-1.14;70.40
69955;BME280;57279;55.912;37.490;2022-11-21T00:53:13;99833.19;;;-1.16;70.74
69955;BME280;57279;55.912;37.490;2022-11-21T00:55:38;99836.31;;;-1.13;70.72
69955;BME280;57279;55.912;37.490;2022-11-21T00:58:04;99824.03;;;-1.06;70.85
69955;BME280;57279;55.912;37.490;2022-11-21T01:00:30;99826.03;;;-1.08;71.31
69955;BME280;57279;55.912;37.490;2022-11-21T01:02:55;99831.66;;;-1.11;70.67
69955;BME280;57279;55.912;37.490;2022-11-21T01:05:21;99830.03;;;-1.12;71.12
69955;BME280;57279;55.912;37.490;2022-11-21T01:07:47;99824.22;;;-1.07;70.77
69955;BME280;57279;55.912;37.490;2022-11-21T01:10:13;99819.56;;;-1.05;70.39
69955;BME280;57279;55.912;37.490;2022-11-21T01:12:39;99833.81;;;-1.06;70.33
69955;BME280;57279;55.912;37.490;2022-11-21T01:15:05;99842.44;;;-1.04;70.38
69955;BME280;57279;55.912;37.490;2022-11-21T01:17:32;99838.47;;;-1.08;70.99
69955;BME280;57279;55.912;37.490;2022-11-21T01:19:58;99829.66;;;-1.09;71.35
69955;BME280;57279;55.912;37.490;2022-11-21T01:22:24;99819.06;;;-1.09;71.16
69955;BME280;57279;55.912;37.490;2022-11-21T01:24:49;99816.78;;;-1.12;71.55
69955;BME280;57279;55.912;37.490;2022-11-21T01:27:15;99807.53;;;-1.16;71.33
69955;BME280;57279;55.912;37.490;2022-11-21T01:29:41;99808.53;;;-1.17;71.54
69955;BME280;57279;55.912;37.490;2022-11-21T01:32:06;99807.69;;;-1.17;71.08
69955;BME280;57279;55.912;37.490;2022-11-21T01:34:32;99811.81;;;-1.15;71.33
69955;BME280;57279;55.912;37.490;2022-11-21T01:36:58;99814.63;;;-1.08;71.14
69955;BME280;57279;55.912;37.490;2022-11-21T01:39:25;99808.13;;;-1.06;70.56
69955;BME280;57279;55.912;37.490;2022-11-21T01:41:51;99806.34;;;-1.13;71.67
69955;BME280;57279;55.912;37.490;2022-11-21T01:44:19;99797.59;;;-1.14;71.39
69955;BME280;57279;55.912;37.490;2022-11-21T01:46:46;99803.38;;;-1.10;71.62
69955;BME280;57279;55.912;37.490;2022-11-21T01:54:25;99783.63;;;-1.08;71.17
69955;BME280;57279;55.912;37.490;2022-11-21T02:00:07;99772.94;;;-1.23;70.63
69955;BME280;57279;55.912;37.490;2022-11-21T02:02:38;99761.53;;;-1.23;70.77
69955;BME280;57279;55.912;37.490;2022-11-21T02:05:08;99750.94;;;-1.23;71.22
69955;BME280;57279;55.912;37.490;2022-11-21T02:07:39;99753.91;;;-1.26;71.83
69955;BME280;57279;55.912;37.490;2022-11-21T02:10:08;99758.06;;;-1.24;71.38
69955;BME280;57279;55.912;37.490;2022-11-21T02:12:37;99749.63;;;-1.27;70.69
69955;BME280;57279;55.912;37.490;2022-11-21T02:15:04;99751.31;;;-1.34;70.73
69955;BME280;57279;55.912;37.490;2022-11-21T02:17:31;99745.56;;;-1.46;71.48
69955;BME280;57279;55.912;37.490;2022-11-21T02:19:58;99749.56;;;-1.50;70.79
69955;BME280;57279;55.912;37.490;2022-11-21T02:25:17;99748.38;;;-1.48;71.02
69955;BME280;57279;55.912;37.490;2022-11-21T02:27:44;99738.50;;;-1.54;71.34
69955;BME280;57279;55.912;37.490;2022-11-21T02:30:11;99738.78;;;-1.49;71.62
69955;BME280;57279;55.912;37.490;2022-11-21T02:32:40;99736.44;;;-1.44;71.63
69955;BME280;57279;55.912;37.490;2022-11-21T02:35:07;99727.31;;;-1.41;71.07
69955;BME280;57279;55.912;37.490;2022-11-21T02:37:35;99718.56;;;-1.42;70.31
69955;BME280;57279;55.912;37.490;2022-11-21T02:40:05;99708.97;;;-1.43;70.83
69955;BME280;57279;55.912;37.490;2022-11-21T02:42:35;99718.94;;;-1.53;70.88
69955;BME280;57279;55.912;37.490;2022-11-21T02:47:36;99735.31;;;-1.49;71.27
69955;BME280;57279;55.912;37.490;2022-11-21T02:52:36;99728.06;;;-1.55;70.85
69955;BME280;57279;55.912;37.490;2022-11-21T02:55:02;99732.34;;;-1.54;70.99
69955;BME280;57279;55.912;37.490;2022-11-21T02:57:28;99726.88;;;-1.53;70.65
69955;BME280;57279;55.912;37.490;2022-11-21T02:59:54;99722.25;;;-1.51;70.35
69955;BME280;57279;55.912;37.490;2022-11-21T03:02:20;99723.41;;;-1.53;70.42
69955;BME280;57279;55.912;37.490;2022-11-21T03:04:45;99710.06;;;-1.68;70.23
69955;BME280;57279;55.912;37.490;2022-11-21T03:07:11;99705.78;;;-1.69;70.43
69955;BME280;57279;55.912;37.490;2022-11-21T03:09:37;99706.78;;;-1.70;70.62
69955;BME280;57279;55.912;37.490;2022-11-21T03:12:07;99711.53;;;-1.66;70.86
69955;BME280;57279;55.912;37.490;2022-11-21T03:14:34;99710.38;;;-1.63;70.91
69955;BME280;57279;55.912;37.490;2022-11-21T03:16:59;99719.63;;;-1.59;70.66
69955;BME280;57279;55.912;37.490;2022-11-21T03:19:25;99721.16;;;-1.65;70.69
69955;BME280;57279;55.912;37.490;2022-11-21T03:21:51;99725.78;;;-1.67;70.66
69955;BME280;57279;55.912;37.490;2022-11-21T03:24:16;99729.28;;;-1.74;70.61
69955;BME280;57279;55.912;37.490;2022-11-21T03:26:42;99724.69;;;-1.81;70.92
69955;BME280;57279;55.912;37.490;2022-11-21T03:29:08;99727.53;;;-1.90;70.68
69955;BME280;57279;55.912;37.490;2022-11-21T03:31:34;99733.59;;;-1.82;70.96
69955;BME280;57279;55.912;37.490;2022-11-21T03:34:00;99735.47;;;-1.90;70.85
69955;BME280;57279;55.912;37.490;2022-11-21T03:36:25;99739.94;;;-1.99;71.19
69955;BME280;57279;55.912;37.490;2022-11-21T03:38:54;99735.97;;;-1.95;71.09
69955;BME280;57279;55.912;37.490;2022-11-21T03:41:20;99744.44;;;-2.00;70.79
69955;BME280;57279;55.912;37.490;2022-11-21T03:44:06;99745.91;;;-1.97;70.92
69955;BME280;57279;55.912;37.490;2022-11-21T03:46:36;99746.22;;;-2.00;70.72
69955;BME280;57279;55.912;37.490;2022-11-21T03:49:03;99750.34;;;-1.89;71.14
69955;BME280;57279;55.912;37.490;2022-11-21T03:51:28;99750.50;;;-1.83;70.69
69955;BME280;57279;55.912;37.490;2022-11-21T03:53:54;99744.38;;;-1.83;70.59
69955;BME280;57279;55.912;37.490;2022-11-21T03:56:20;99740.88;;;-1.75;70.85
69955;BME280;57279;55.912;37.490;2022-11-21T03:58:46;99744.31;;;-1.67;70.31
69955;BME280;57279;55.912;37.490;2022-11-21T04:01:12;99740.00;;;-1.60;69.95
69955;BME280;57279;55.912;37.490;2022-11-21T04:03:40;99735.34;;;-1.58;69.80
69955;BME280;57279;55.912;37.490;2022-11-21T04:06:08;99736.88;;;-1.63;70.04
69955;BME280;57279;55.912;37.490;2022-11-21T04:08:34;99735.25;;;-1.72;70.03
69955;BME280;57279;55.912;37.490;2022-11-21T04:11:00;99740.84;;;-1.67;70.52
69955;BME280;57279;55.912;37.490;2022-11-21T04:13:25;99737.16;;;-1.58;70.15
69955;BME280;57279;55.912;37.490;2022-11-21T04:15:51;99730.22;;;-1.59;69.92
69955;BME280;57279;55.912;37.490;2022-11-21T04:18:17;99731.69;;;-1.57;70.14
69955;BME280;57279;55.912;37.490;2022-11-21T04:20:43;99729.09;;;-1.65;70.17
69955;BME280;57279;55.912;37.490;2022-11-21T04:23:08;99724.78;;;-1.66;70.12
69955;BME280;57279;55.912;37.490;2022-11-21T04:25:34;99719.84;;;-1.69;69.87
69955;BME280;57279;55.912;37.490;2022-11-21T04:28:01;99720.53;;;-1.75;69.38
69955;BME280;57279;55.912;37.490;2022-11-21T04:30:28;99715.09;;;-1.82;70.10
69955;BME280;57279;55.912;37.490;2022-11-21T04:32:54;99721.66;;;-1.69;70.79
69955;BME280;57279;55.912;37.490;2022-11-21T04:35:21;99714.59;;;-1.85;70.04
69955;BME280;57279;55.912;37.490;2022-11-21T04:37:47;99721.19;;;-1.81;70.09
69955;BME280;57279;55.912;37.490;2022-11-21T04:40:14;99711.94;;;-1.85;70.21
69955;BME280;57279;55.912;37.490;2022-11-21T04:42:40;99703.03;;;-1.92;69.96
69955;BME280;57279;55.912;37.490;2022-11-21T04:45:07;99703.03;;;-1.92;70.13
69955;BME280;57279;55.912;37.490;2022-11-21T04:47:36;99700.38;;;-1.92;70.01
69955;BME280;57279;55.912;37.490;2022-11-21T04:50:02;99700.53;;;-1.86;69.98
69955;BME280;57279;55.912;37.490;2022-11-21T04:52:28;99703.03;;;-1.84;70.11
69955;BME280;57279;55.912;37.490;2022-11-21T04:54:53;99698.75;;;-1.93;69.69
69955;BME280;57279;55.912;37.490;2022-11-21T04:57:19;99696.88;;;-1.85;70.16
69955;BME280;57279;55.912;37.490;2022-11-21T04:59:44;99707.16;;;-1.82;70.29
69955;BME280;57279;55.912;37.490;2022-11-21T05:02:10;99704.66;;;-1.83;70.05
69955;BME280;57279;55.912;37.490;2022-11-21T05:04:36;99704.44;;;-1.73;70.11
69955;BME280;57279;55.912;37.490;2022-11-21T05:07:01;99691.78;;;-1.86;69.58
69955;BME280;57279;55.912;37.490;2022-11-21T05:09:27;99692.91;;;-1.81;69.93
69955;BME280;57279;55.912;37.490;2022-11-21T05:11:53;99697.56;;;-1.83;70.41
69955;BME280;57279;55.912;37.490;2022-11-21T05:14:37;99702.66;;;-1.81;70.33
69955;BME280;57279;55.912;37.490;2022-11-21T05:17:03;99699.34;;;-1.75;70.11
69955;BME280;57279;55.912;37.490;2022-11-21T05:19:28;99702.16;;;-1.77;69.76
69955;BME280;57279;55.912;37.490;2022-11-21T05:21:54;99693.91;;;-1.82;70.31
69955;BME280;57279;55.912;37.490;2022-11-21T05:24:20;99693.25;;;-1.84;69.84
69955;BME280;57279;55.912;37.490;2022-11-21T05:26:45;99698.06;;;-1.87;70.59
69955;BME280;57279;55.912;37.490;2022-11-21T05:29:11;99695.94;;;-1.92;70.17
69955;BME280;57279;55.912;37.490;2022-11-21T05:31:37;99696.59;;;-1.90;70.30
69955;BME280;57279;55.912;37.490;2022-11-21T05:34:03;99685.72;;;-2.11;70.46
69955;BME280;57279;55.912;37.490;2022-11-21T05:36:29;99682.22;;;-2.04;70.95
69955;BME280;57279;55.912;37.490;2022-11-21T05:38:55;99670.00;;;-2.05;70.77
69955;BME280;57279;55.912;37.490;2022-11-21T05:41:20;99667.19;;;-2.03;71.18
69955;BME280;57279;55.912;37.490;2022-11-21T05:43:46;99667.03;;;-2.02;71.02
69955;BME280;57279;55.912;37.490;2022-11-21T05:46:17;99670.13;;;-1.98;70.76
69955;BME280;57279;55.912;37.490;2022-11-21T05:48:44;99672.44;;;-1.95;70.58
69955;BME280;57279;55.912;37.490;2022-11-21T05:51:10;99679.03;;;-1.83;70.69
69955;BME280;57279;55.912;37.490;2022-11-21T05:53:35;99682.81;;;-1.77;70.00
69955;BME280;57279;55.912;37.490;2022-11-21T05:56:07;99680.72;;;-1.90;70.23
69955;BME280;57279;55.912;37.490;2022-11-21T05:58:33;99675.72;;;-1.85;70.09
69955;BME280;57279;55.912;37.490;2022-11-21T06:01:00;99677.84;;;-1.80;69.88
69955;BME280;57279;55.912;37.490;2022-11-21T06:03:28;99682.97;;;-1.79;69.46
69955;BME280;57279;55.912;37.490;2022-11-21T06:06:10;99684.91;;;-1.64;69.56
69955;BME280;57279;55.912;37.490;2022-11-21T06:08:40;99683.91;;;-1.63;69.79
69955;BME280;57279;55.912;37.490;2022-11-21T06:11:08;99690.56;;;-1.67;69.11
69955;BME280;57279;55.912;37.490;2022-11-21T06:13:34;99683.09;;;-1.64;69.27
69955;BME280;57279;55.912;37.490;2022-11-21T06:18:32;99683.75;;;-1.62;69.34
69955;BME280;57279;55.912;37.490;2022-11-21T06:21:06;99685.28;;;-1.75;69.05
69955;BME280;57279;55.912;37.490;2022-11-21T06:23:32;99683.94;;;-1.71;69.48
69955;BME280;57279;55.912;37.490;2022-11-21T06:26:00;99683.44;;;-1.67;68.75
69955;BME280;57279;55.912;37.490;2022-11-21T06:28:29;99682.91;;;-1.62;68.71
69955;BME280;57279;55.912;37.490;2022-11-21T06:31:01;99676.72;;;-1.54;68.00
69955;BME280;57279;55.912;37.490;2022-11-21T06:33:27;99672.56;;;-1.49;68.60
69955;BME280;57279;55.912;37.490;2022-11-21T06:35:52;99678.41;;;-1.53;67.97
69955;BME280;57279;55.912;37.490;2022-11-21T06:38:18;99679.38;;;-1.46;68.21
69955;BME280;57279;55.912;37.490;2022-11-21T06:40:44;99676.56;;;-1.53;67.67
69955;BME280;57279;55.912;37.490;2022-11-21T06:43:09;99676.13;;;-1.65;68.00
69955;BME280;57279;55.912;37.490;2022-11-21T06:45:35;99667.53;;;-1.67;67.93
69955;BME280;57279;55.912;37.490;2022-11-21T06:48:02;99669.19;;;-1.66;67.96
69955;BME280;57279;55.912;37.490;2022-11-21T06:50:29;99674.63;;;-1.59;67.80
69955;BME280;57279;55.912;37.490;2022-11-21T06:52:59;99673.50;;;-1.65;67.83
69955;BME280;57279;55.912;37.490;2022-11-21T06:55:25;99683.44;;;-1.67;68.45
69955;BME280;57279;55.912;37.490;2022-11-21T06:57:58;99696.88;;;-1.77;67.78
69955;BME280;57279;55.912;37.490;2022-11-21T07:00:25;99708.06;;;-1.66;68.01
69955;BME280;57279;55.912;37.490;2022-11-21T07:02:53;99701.75;;;-1.57;67.44
69955;BME280;57279;55.912;37.490;2022-11-21T07:05:19;99704.28;;;-1.72;67.22
69955;BME280;57279;55.912;37.490;2022-11-21T07:07:44;99692.50;;;-1.61;67.72
69955;BME280;57279;55.912;37.490;2022-11-21T07:10:10;99690.34;;;-1.58;67.13
69955;BME280;57279;55.912;37.490;2022-11-21T07:12:36;99696.78;;;-1.60;66.70
69955;BME280;57279;55.912;37.490;2022-11-21T07:15:21;99705.03;;;-1.55;66.70
69955;BME280;57279;55.912;37.490;2022-11-21T07:17:46;99707.47;;;-1.77;67.08
69955;BME280;57279;55.912;37.490;2022-11-21T07:20:12;99715.19;;;-1.67;66.90
69955;BME280;57279;55.912;37.490;2022-11-21T07:22:38;99699.44;;;-1.60;66.66
69955;BME280;57279;55.912;37.490;2022-11-21T07:25:04;99691.03;;;-1.64;66.73
69955;BME280;57279;55.912;37.490;2022-11-21T07:27:30;99681.59;;;-1.66;67.27
69955;BME280;57279;55.912;37.490;2022-11-21T07:29:56;99680.72;;;-1.59;66.86
69955;BME280;57279;55.912;37.490;2022-11-21T07:32:24;99660.69;;;-1.84;66.66
69955;BME280;57279;55.912;37.490;2022-11-21T07:34:50;99668.44;;;-1.83;67.27
69955;BME280;57279;55.912;37.490;2022-11-21T07:37:15;99686.63;;;-1.80;67.60
69955;BME280;57279;55.912;37.490;2022-11-21T07:39:41;99677.00;;;-1.72;67.04
69955;BME280;57279;55.912;37.490;2022-11-21T07:42:07;99664.25;;;-1.69;66.94
69955;BME280;57279;55.912;37.490;2022-11-21T07:44:35;99658.59;;;-1.66;66.35
69955;BME280;57279;55.912;37.490;2022-11-21T07:47:00;99672.03;;;-1.67;66.56
69955;BME280;57279;55.912;37.490;2022-11-21T07:49:26;99676.13;;;-1.65;66.73
69955;BME280;57279;55.912;37.490;2022-11-21T07:51:52;99680.63;;;-1.65;66.25
69955;BME280;57279;55.912;37.490;2022-11-21T07:54:18;99687.91;;;-1.75;66.66
69955;BME280;57279;55.912;37.490;2022-11-21T07:56:44;99683.94;;;-1.71;66.74
69955;BME280;57279;55.912;37.490;2022-11-21T07:59:10;99683.28;;;-1.73;66.06
69955;BME280;57279;55.912;37.490;2022-11-21T08:01:35;99683.81;;;-1.78;66.46
69955;BME280;57279;55.912;37.490;2022-11-21T08:04:01;99679.66;;;-1.72;66.41
69955;BME280;57279;55.912;37.490;2022-11-21T08:06:27;99679.75;;;-1.66;66.13
69955;BME280;57279;55.912;37.490;2022-11-21T08:08:53;99674.03;;;-1.69;66.19
69955;BME280;57279;55.912;37.490;2022-11-21T08:11:22;99675.81;;;-1.70;66.34
69955;BME280;57279;55.912;37.490;2022-11-21T08:13:48;99666.41;;;-1.72;66.40
69955;BME280;57279;55.912;37.490;2022-11-21T08:16:14;99663.28;;;-1.76;65.87
69955;BME280;57279;55.912;37.490;2022-11-21T08:18:40;99677.31;;;-1.75;65.79
69955;BME280;57279;55.912;37.490;2022-11-21T08:21:05;99684.34;;;-1.83;66.19
69955;BME280;57279;55.912;37.490;2022-11-21T08:23:31;99677.31;;;-1.67;65.69
69955;BME280;57279;55.912;37.490;2022-11-21T08:25:57;99679.59;;;-1.64;65.77
69955;BME280;57279;55.912;37.490;2022-11-21T08:28:23;99685.25;;;-1.67;65.17
69955;BME280;57279;55.912;37.490;2022-11-21T08:30:49;99683.22;;;-1.57;65.13
69955;BME280;57279;55.912;37.490;2022-11-21T08:33:14;99684.66;;;-1.46;65.04
69955;BME280;57279;55.912;37.490;2022-11-21T08:35:40;99682.03;;;-1.54;65.15
69955;BME280;57279;55.912;37.490;2022-11-21T08:38:07;99682.50;;;-1.51;64.95
69955;BME280;57279;55.912;37.490;2022-11-21T08:40:33;99680.50;;;-1.49;64.88
69955;BME280;57279;55.912;37.490;2022-11-21T08:43:00;99684.28;;;-1.43;64.38
69955;BME280;57279;55.912;37.490;2022-11-21T08:45:27;99682.13;;;-1.40;64.61
69955;BME280;57279;55.912;37.490;2022-11-21T08:47:53;99683.19;;;-1.26;64.75
69955;BME280;57279;55.912;37.490;2022-11-21T08:50:19;99678.31;;;-1.37;64.78
69955;BME280;57279;55.912;37.490;2022-11-21T08:52:45;99692.22;;;-1.35;64.53
69955;BME280;57279;55.912;37.490;2022-11-21T08:55:10;99694.41;;;-1.47;64.65
69955;BME280;57279;55.912;37.490;2022-11-21T08:57:40;99688.56;;;-1.34;64.97
69955;BME280;57279;55.912;37.490;2022-11-21T09:00:07;99689.19;;;-1.32;64.76
69955;BME280;57279;55.912;37.490;2022-11-21T09:02:34;99678.31;;;-1.37;64.61
69955;BME280;57279;55.912;37.490;2022-11-21T09:05:00;99675.00;;;-1.39;64.83
69955;BME280;57279;55.912;37.490;2022-11-21T09:07:26;99679.38;;;-1.23;64.69
69955;BME280;57279;55.912;37.490;2022-11-21T09:09:52;99682.75;;;-1.29;64.66
69955;BME280;57279;55.912;37.490;2022-11-21T09:12:18;99674.75;;;-1.21;64.61
69955;BME280;57279;55.912;37.490;2022-11-21T09:14:44;99668.97;;;-1.25;64.71
69955;BME280;57279;55.912;37.490;2022-11-21T09:17:28;99664.06;;;-1.36;64.46
69955;BME280;57279;55.912;37.490;2022-11-21T09:20:12;99674.16;;;-1.31;64.90
69955;BME280;57279;55.912;37.490;2022-11-21T09:22:38;99662.84;;;-1.25;64.31
69955;BME280;57279;55.912;37.490;2022-11-21T09:25:04;99657.63;;;-1.10;64.35
69955;BME280;57279;55.912;37.490;2022-11-21T09:27:30;99657.97;;;-1.13;64.16
69955;BME280;57279;55.912;37.490;2022-11-21T09:29:56;99651.38;;;-1.17;64.22
69955;BME280;57279;55.912;37.490;2022-11-21T09:32:22;99644.94;;;-1.23;64.03
69955;BME280;57279;55.912;37.490;2022-11-21T09:34:48;99642.00;;;-1.28;64.61
69955;BME280;57279;55.912;37.490;2022-11-21T09:37:13;99640.81;;;-1.26;64.80
69955;BME280;57279;55.912;37.490;2022-11-21T09:39:39;99638.88;;;-1.09;64.76
69955;BME280;57279;55.912;37.490;2022-11-21T09:47:49;99640.47;;;-1.23;64.54
69955;BME280;57279;55.912;37.490;2022-11-21T09:50:32;99635.88;;;-1.29;64.38
69955;BME280;57279;55.912;37.490;2022-11-21T09:53:02;99637.50;;;-1.28;64.82
69955;BME280;57279;55.912;37.490;2022-11-21T09:55:39;99639.03;;;-1.33;64.28
69955;BME280;57279;55.912;37.490;2022-11-21T09:58:15;99643.28;;;-1.24;65.02
69955;BME280;57279;55.912;37.490;2022-11-21T10:00:44;99640.81;;;-1.26;64.87
69955;BME280;57279;55.912;37.490;2022-11-21T10:03:11;99637.16;;;-1.48;64.75
69955;BME280;57279;55.912;37.490;2022-11-21T10:05:46;99639.81;;;-1.48;65.51
69955;BME280;57279;55.912;37.490;2022-11-21T10:08:33;99634.75;;;-1.66;65.06
69955;BME280;57279;55.912;37.490;2022-11-21T10:14:11;99626.38;;;-1.46;65.08
69955;BME280;57279;55.912;37.490;2022-11-21T10:19:33;99639.22;;;-1.12;64.67
69955;BME280;57279;55.912;37.490;2022-11-21T10:23:16;99627.53;;;-1.17;64.80
69955;BME280;57279;55.912;37.490;2022-11-21T10:25:23;99625.38;;;-1.22;64.54
69955;BME280;57279;55.912;37.490;2022-11-21T10:28:30;99626.56;;;-1.25;64.33
69955;BME280;57279;55.912;37.490;2022-11-21T10:30:58;99612.59;;;-1.19;63.77
69955;BME280;57279;55.912;37.490;2022-11-21T10:33:33;99610.56;;;-1.31;64.14
69955;BME280;57279;55.912;37.490;2022-11-21T10:36:08;99601.94;;;-1.33;64.31
69955;BME280;57279;55.912;37.490;2022-11-21T10:38:38;99600.84;;;-1.16;63.73
69955;BME280;57279;55.912;37.490;2022-11-21T10:41:18;99599.53;;;-1.20;63.79
69955;BME280;57279;55.912;37.490;2022-11-21T10:44:00;99599.19;;;-1.17;64.04
69955;BME280;57279;55.912;37.490;2022-11-21T10:46:54;99596.25;;;-1.22;63.87
69955;BME280;57279;55.912;37.490;2022-11-21T10:49:20;99595.91;;;-1.19;64.50
69955;BME280;57279;55.912;37.490;2022-11-21T10:54:22;99586.91;;;-1.33;64.41
69955;BME280;57279;55.912;37.490;2022-11-21T10:57:12;99579.59;;;-1.31;64.66
69955;BME280;57279;55.912;37.490;2022-11-21T10:59:39;99583.63;;;-1.20;64.42
69955;BME280;57279;55.912;37.490;2022-11-21T11:04:36;99597.19;;;-1.15;64.09
69955;BME280;57279;55.912;37.490;2022-11-21T11:09:44;99588.28;;;-1.22;64.68
69955;BME280;57279;55.912;37.490;2022-11-21T11:12:27;99587.00;;;-1.26;64.42
69955;BME280;57279;55.912;37.490;2022-11-21T11:15:17;99577.66;;;-1.14;65.09
69955;BME280;57279;55.912;37.490;2022-11-21T11:17:49;99580.56;;;-1.09;64.30
69955;BME280;57279;55.912;37.490;2022-11-21T11:20:39;99564.88;;;-1.10;64.47
69955;BME280;57279;55.912;37.490;2022-11-21T11:25:51;99566.88;;;-1.35;65.31
69955;BME280;57279;55.912;37.490;2022-11-21T11:28:18;99556.50;;;-1.45;65.26
69955;BME280;57279;55.912;37.490;2022-11-21T11:30:46;99557.03;;;-1.27;65.29
69955;BME280;57279;55.912;37.490;2022-11-21T11:33:32;99564.19;;;-1.27;65.49
69955;BME280;57279;55.912;37.490;2022-11-21T11:38:55;99560.34;;;-1.25;64.58
69955;BME280;57279;55.912;37.490;2022-11-21T11:44:27;99551.94;;;-1.51;64.71
69955;BME280;57279;55.912;37.490;2022-11-21T11:47:22;99542.75;;;-1.64;64.86
69955;BME280;57279;55.912;37.490;2022-11-21T11:50:03;99547.69;;;-1.84;65.16
69955;BME280;57279;55.912;37.490;2022-11-21T11:58:42;99545.59;;;-1.97;66.58
69955;BME280;57279;55.912;37.490;2022-11-21T12:01:14;99549.41;;;-1.99;66.93
69955;BME280;57279;55.912;37.490;2022-11-21T12:04:03;99545.16;;;-2.08;66.55
69955;BME280;57279;55.912;37.490;2022-11-21T12:06:36;99540.25;;;-2.20;66.82
69955;BME280;57279;55.912;37.490;2022-11-21T12:11:54;99550.72;;;-1.95;67.24
69955;BME280;57279;55.912;37.490;2022-11-21T12:17:19;99545.19;;;-1.85;66.18
69955;BME280;57279;55.912;37.490;2022-11-21T12:19:47;99539.09;;;-1.86;66.73
69955;BME280;57279;55.912;37.490;2022-11-21T12:22:15;99539.78;;;-1.92;66.90
69955;BME280;57279;55.912;37.490;2022-11-21T12:24:41;99553.94;;;-1.77;66.03
69955;BME280;57279;55.912;37.490;2022-11-21T12:27:29;99537.91;;;-1.83;65.95
69955;BME280;57279;55.912;37.490;2022-11-21T12:33:05;99528.50;;;-1.86;66.55
69955;BME280;57279;55.912;37.490;2022-11-21T12:41:28;99544.13;;;-1.99;66.61
69955;BME280;57279;55.912;37.490;2022-11-21T12:50:16;99558.44;;;-2.17;67.11
69955;BME280;57279;55.912;37.490;2022-11-21T12:53:15;99561.03;;;-2.08;66.58
69955;BME280;57279;55.912;37.490;2022-11-21T12:56:31;99555.16;;;-2.27;67.00
69955;BME280;57279;55.912;37.490;2022-11-21T12:59:02;99561.50;;;-2.44;67.72
69955;BME280;57279;55.912;37.490;2022-11-21T13:01:46;99566.63;;;-2.43;67.92
69955;BME280;57279;55.912;37.490;2022-11-21T13:04:27;99571.13;;;-2.51;68.70
69955;BME280;57279;55.912;37.490;2022-11-21T13:06:56;99546.00;;;-2.56;68.76
69955;BME280;57279;55.912;37.490;2022-11-21T13:09:23;99547.50;;;-2.53;68.94
69955;BME280;57279;55.912;37.490;2022-11-21T13:12:07;99549.50;;;-2.55;69.01
69955;BME280;57279;55.912;37.490;2022-11-21T13:14:48;99545.22;;;-2.64;68.69
69955;BME280;57279;55.912;37.490;2022-11-21T13:17:34;99555.66;;;-2.71;68.72
69955;BME280;57279;55.912;37.490;2022-11-21T13:22:56;99554.16;;;-2.73;68.99
69955;BME280;57279;55.912;37.490;2022-11-21T13:30:51;99537.06;;;-3.02;69.43
69955;BME280;57279;55.912;37.490;2022-11-21T13:36:06;99537.38;;;-3.05;69.44
69955;BME280;57279;55.912;37.490;2022-11-21T13:39:23;99520.72;;;-3.06;69.83
69955;BME280;57279;55.912;37.490;2022-11-21T13:47:02;99535.75;;;-3.06;69.99
69955;BME280;57279;55.912;37.490;2022-11-21T13:52:07;99538.38;;;-2.98;69.16
69955;BME280;57279;55.912;37.490;2022-11-21T14:08:28;99517.75;;;-3.19;70.42
69955;BME280;57279;55.912;37.490;2022-11-21T14:10:55;99513.47;;;-3.12;70.62
69955;BME280;57279;55.912;37.490;2022-11-21T14:13:35;99522.38;;;-3.21;70.68
69955;BME280;57279;55.912;37.490;2022-11-21T14:16:32;99520.41;;;-3.36;70.78
69955;BME280;57279;55.912;37.490;2022-11-21T14:19:00;99520.41;;;-3.27;71.64
69955;BME280;57279;55.912;37.490;2022-11-21T14:21:29;99523.69;;;-3.17;71.16
69955;BME280;57279;55.912;37.490;2022-11-21T14:23:58;99520.56;;;-3.04;70.76
69955;BME280;57279;55.912;37.490;2022-11-21T14:26:33;99529.31;;;-3.20;71.07
69955;BME280;57279;55.912;37.490;2022-11-21T14:29:39;99526.47;;;-3.10;70.72
69955;BME280;57279;55.912;37.490;2022-11-21T14:32:12;99528.97;;;-3.17;71.10
69955;BME280;57279;55.912;37.490;2022-11-21T14:34:38;99523.19;;;-3.21;70.87
69955;BME280;57279;55.912;37.490;2022-11-21T14:37:05;99527.66;;;-3.29;70.59
69955;BME280;57279;55.912;37.490;2022-11-21T14:39:33;99528.16;;;-3.26;71.25
69955;BME280;57279;55.912;37.490;2022-11-21T14:42:04;99540.38;;;-3.25;71.59
69955;BME280;57279;55.912;37.490;2022-11-21T14:44:31;99526.84;;;-3.30;70.63
69955;BME280;57279;55.912;37.490;2022-11-21T14:49:37;99528.66;;;-3.30;70.68
69955;BME280;57279;55.912;37.490;2022-11-21T14:52:14;99520.72;;;-3.22;70.75